Time;durP1;ratioP1;P1;durP2;ratioP2;P2;SDS_P1;SDS_P2;PMS_P1;PMS_P2;Temp;Humidity;BMP_temperature;BMP_pressure;BME280_temperature;BME280_humidity;BME280_pressure;Samples;Min_cycle;Max_cycle;Signal;HPM_P1;HPM_P2
2022/09/17 00:01:28;;;;;;;13.17;2.77;;;15.20;85.30;;;18.05;63.75;100568.91;5053086;28;20229;-57
2022/09/17 00:04:00;;;;;;;7.43;2.60;;;15.10;85.90;;;18.03;63.39;100576.31;5053119;28;20224;-54
2022/09/17 00:06:29;;;;;;;7.13;1.90;;;15.10;85.30;;;18.00;63.67;100580.25;5053202;28;20244;-55
2022/09/17 00:08:56;;;;;;;10.33;2.63;;;15.10;85.40;;;17.96;62.91;100578.28;5047293;28;20340;-53
2022/09/17 00:11:28;;;;;;;9.10;2.40;;;15.00;84.30;;;17.92;63.13;100585.09;5032829;28;20202;-54
2022/09/17 00:13:58;;;;;;;12.80;2.90;;;15.00;84.50;;;17.88;63.37;100583.91;5033116;28;20579;-54
2022/09/17 00:16:29;;;;;;;10.40;2.53;;;15.00;84.50;;;17.83;63.66;100578.47;5033777;28;20198;-53
2022/09/17 00:18:58;;;;;;;9.67;2.40;;;15.00;85.20;;;17.79;63.92;100591.41;5032868;28;20217;-53
2022/09/17 00:21:26;;;;;;;10.07;2.70;;;14.90;85.10;;;17.77;63.99;100587.34;5032446;28;20717;-54
2022/09/17 00:23:56;;;;;;;8.30;2.50;;;14.90;85.30;;;17.75;64.11;100589.41;5041435;28;20693;-56
2022/09/17 00:26:24;;;;;;;9.07;2.40;;;14.90;86.10;;;17.74;64.39;100595.78;5052459;28;20213;-55
2022/09/17 00:28:55;;;;;;;8.00;3.07;;;14.80;86.00;;;17.71;64.57;100598.91;5052529;28;20245;-54
2022/09/17 00:31:24;;;;;;;7.17;2.57;;;14.80;86.10;;;17.69;64.75;100590.31;5052138;28;20182;-53
2022/09/17 00:33:52;;;;;;;16.33;3.30;;;14.80;87.20;;;17.69;64.83;100595.63;5052157;28;20206;-53
2022/09/17 00:36:20;;;;;;;12.87;2.90;;;14.80;86.20;;;17.69;65.11;100595.63;5052595;28;20186;-54
2022/09/17 00:38:49;;;;;;;14.30;3.17;;;14.80;86.70;;;17.70;65.09;100594.59;5039448;28;20207;-54
2022/09/17 00:41:17;;;;;;;10.57;2.53;;;14.70;86.50;;;17.70;65.08;100591.94;5032299;28;20706;-55
2022/09/17 00:43:49;;;;;;;10.30;3.13;;;14.70;88.20;;;17.70;65.17;100597.25;5032284;28;20218;-54
2022/09/17 00:46:32;;;;;;;9.40;2.90;;;14.70;87.30;;;17.66;65.04;100602.25;5032760;28;20218;-55
2022/09/17 00:49:04;;;;;;;8.97;2.87;;;14.70;86.40;;;17.64;65.27;100587.53;5032247;28;20179;-53
2022/09/17 00:51:39;;;;;;;13.10;2.80;;;14.70;87.30;;;17.63;65.78;100596.53;5031046;28;20640;-56
2022/09/17 00:54:09;;;;;;;11.10;3.03;;;14.70;87.00;;;17.60;65.33;100595.13;5052164;28;20189;-55
2022/09/17 00:56:40;;;;;;;12.87;2.97;;;14.60;87.00;;;17.59;65.63;100596.97;5052848;28;20240;-56
2022/09/17 00:59:07;;;;;;;9.83;2.30;;;14.60;86.80;;;17.55;65.77;100595.81;5053309;28;20186;-55
2022/09/17 01:01:37;;;;;;;8.53;2.80;;;14.60;86.90;;;17.52;65.77;100596.25;5051753;28;20252;-57
2022/09/17 01:04:05;;;;;;;11.60;3.07;;;14.60;86.50;;;17.51;65.73;100599.97;5052394;28;20647;-53
2022/09/17 01:06:41;;;;;;;8.30;2.93;;;14.60;87.20;;;17.48;65.84;100599.53;5049774;28;20631;-53
2022/09/17 01:09:29;;;;;;;10.50;2.63;;;14.50;87.30;;;17.42;65.86;100601.25;5033386;28;20190;-55
2022/09/17 01:12:23;;;;;;;10.70;3.50;;;14.50;86.70;;;17.40;65.53;100603.31;5032268;28;20734;-56
2022/09/17 01:15:19;;;;;;;15.27;3.17;;;14.50;86.80;;;17.36;65.74;100611.97;5032338;28;20194;-57
2022/09/17 01:18:07;;;;;;;7.57;2.70;;;14.50;87.20;;;17.36;65.81;100607.47;5032291;28;20693;-56
2022/09/17 01:21:15;;;;;;;7.97;2.97;;;14.50;86.80;;;17.32;65.79;100608.13;5031953;28;20175;-57
2022/09/17 01:24:27;;;;;;;12.33;3.47;;;14.40;86.70;;;17.29;65.83;100606.72;5047548;28;20618;-56
2022/09/17 01:27:43;;;;;;;14.17;3.30;;;14.40;86.40;;;17.26;65.99;100606.34;5031902;28;20214;-56
2022/09/17 01:30:31;;;;;;;14.47;3.33;;;14.40;85.50;;;17.27;65.86;100616.78;5032288;28;20190;-54
2022/09/17 01:33:11;;;;;;;9.53;2.67;;;14.40;87.20;;;17.30;65.55;100612.88;5030806;28;20304;-55
2022/09/17 01:35:51;;;;;;;9.70;3.70;;;14.40;86.70;;;17.30;65.76;100607.53;5032517;28;20228;-52
2022/09/17 01:38:28;;;;;;;11.20;2.70;;;14.40;86.90;;;17.30;65.97;100613.69;5032156;28;20264;-57
2022/09/17 01:41:06;;;;;;;10.87;3.30;;;14.40;87.10;;;17.29;65.50;100611.22;5031974;28;20194;-53
2022/09/17 01:43:45;;;;;;;8.90;3.20;;;14.40;85.70;;;17.29;65.79;100617.38;5032277;28;20302;-54
2022/09/17 01:46:21;;;;;;;12.47;2.67;;;14.30;86.90;;;17.31;65.72;100625.13;5032342;28;20639;-55
2022/09/17 01:48:57;;;;;;;8.00;2.90;;;14.40;87.00;;;17.32;65.64;100624.91;5032138;28;20225;-56
2022/09/17 01:51:33;;;;;;;8.00;2.60;;;14.40;87.40;;;17.34;65.92;100630.81;5044581;28;20197;-55
2022/09/17 01:54:05;;;;;;;7.93;2.53;;;14.40;87.10;;;17.36;65.85;100633.25;5051949;28;20190;-56
2022/09/17 01:56:39;;;;;;;9.90;3.20;;;14.40;87.30;;;17.36;65.84;100626.09;5052254;28;20244;-56
2022/09/17 01:59:17;;;;;;;7.47;2.33;;;14.40;87.10;;;17.35;65.09;100632.44;5052484;28;20247;-56
2022/09/17 02:01:52;;;;;;;7.80;2.40;;;14.40;85.90;;;17.35;65.37;100632.44;5055177;28;20205;-54
2022/09/17 02:04:27;;;;;;;6.40;2.17;;;14.40;86.70;;;17.35;65.51;100632.44;5055644;28;20626;-56
2022/09/17 02:07:02;;;;;;;9.07;2.33;;;14.40;86.60;;;17.35;65.42;100643.06;5036210;28;20224;-56
2022/09/17 02:09:37;;;;;;;10.97;2.77;;;14.40;85.80;;;17.34;64.84;100645.97;5036273;28;20197;-54
2022/09/17 02:12:11;;;;;;;10.27;2.47;;;14.40;84.60;;;17.33;65.16;100642.47;5035816;28;20752;-56
2022/09/17 02:14:46;;;;;;;9.27;2.50;;;14.40;85.80;;;17.33;64.96;100650.47;5035901;28;20178;-57
2022/09/17 02:17:25;;;;;;;7.53;2.70;;;14.40;85.70;;;17.32;64.81;100648.84;5035672;28;20603;-57
2022/09/17 02:19:55;;;;;;;12.37;3.90;;;14.40;85.40;;;17.32;64.75;100645.38;5044127;28;20182;-56
2022/09/17 02:22:33;;;;;;;9.30;2.30;;;14.40;85.50;;;17.29;64.46;100649.28;5054902;28;20209;-56
2022/09/17 02:25:07;;;;;;;9.50;2.60;;;14.40;85.00;;;17.30;64.06;100648.28;5055003;28;20186;-55
2022/09/17 02:27:49;;;;;;;9.73;3.47;;;14.40;84.20;;;17.28;63.69;100646.88;5055010;28;20221;-55
2022/09/17 02:30:17;;;;;;;10.33;3.07;;;14.40;83.90;;;17.32;63.48;100643.53;5055365;28;20182;-56
2022/09/17 02:32:47;;;;;;;9.47;2.50;;;14.40;84.40;;;17.34;63.46;100649.44;5047377;28;20264;-55
2022/09/17 02:35:15;;;;;;;7.87;2.37;;;14.40;83.80;;;17.37;63.40;100651.69;5035170;28;20198;-54
2022/09/17 02:37:43;;;;;;;11.23;3.50;;;14.40;83.70;;;17.39;62.31;100648.78;5035111;28;20187;-55
2022/09/17 02:40:14;;;;;;;7.17;2.57;;;14.40;82.90;;;17.42;62.40;100653.66;5034789;28;20202;-55
2022/09/17 02:43:02;;;;;;;10.20;3.00;;;14.40;83.10;;;17.42;61.84;100654.47;5035438;28;20249;-56
2022/09/17 02:45:48;;;;;;;7.13;2.57;;;14.40;81.50;;;17.46;61.38;100650.34;5034913;28;20190;-56
2022/09/17 02:48:38;;;;;;;7.80;2.10;;;14.50;81.30;;;17.49;61.31;100655.22;5050491;28;20259;-55
2022/09/17 02:51:25;;;;;;;7.03;2.23;;;14.50;81.70;;;17.54;61.36;100654.59;5053808;28;20259;-54
2022/09/17 02:54:04;;;;;;;8.20;3.00;;;14.60;82.60;;;17.59;61.51;100655.53;5054136;28;20209;-55
2022/09/17 02:56:45;;;;;;;11.50;3.17;;;14.60;82.30;;;17.63;61.04;100652.44;5054202;28;20198;-55
2022/09/17 02:59:20;;;;;;;6.53;2.67;;;14.60;82.10;;;17.65;60.98;100663.66;5054194;28;20182;-55
2022/09/17 03:01:57;;;;;;;7.13;2.33;;;14.70;82.00;;;17.65;61.25;100661.00;5045223;28;20213;-56
2022/09/17 03:04:28;;;;;;;7.67;2.40;;;14.70;82.20;;;17.66;60.98;100660.81;5034028;28;20210;-56
2022/09/17 03:06:58;;;;;;;6.93;2.67;;;14.70;82.20;;;17.67;61.17;100664.25;5033676;28;20691;-55
2022/09/17 03:09:25;;;;;;;8.50;2.43;;;14.70;82.30;;;17.69;60.92;100660.34;5033789;28;20663;-56
2022/09/17 03:11:53;;;;;;;6.47;2.03;;;14.70;82.40;;;17.69;60.68;100659.53;5032159;28;20222;-57
2022/09/17 03:14:20;;;;;;;7.93;2.03;;;14.70;82.80;;;17.67;60.89;100650.94;5033760;28;20337;-54
2022/09/17 03:16:47;;;;;;;8.60;2.33;;;14.70;82.00;;;17.64;60.73;100651.41;5045590;28;20618;-54
2022/09/17 03:19:14;;;;;;;7.70;2.60;;;14.70;82.30;;;17.61;60.87;100663.31;5053881;28;20261;-55
2022/09/17 03:21:43;;;;;;;9.73;2.60;;;14.60;82.00;;;17.56;60.83;100653.34;5053430;28;20194;-57
2022/09/17 03:24:10;;;;;;;7.80;2.57;;;14.60;82.20;;;17.54;60.57;100646.59;5053752;28;20201;-57
2022/09/17 03:26:38;;;;;;;6.47;2.40;;;14.60;82.20;;;17.50;60.49;100648.84;5053543;28;20214;-54
2022/09/17 03:29:05;;;;;;;5.87;2.20;;;14.60;82.20;;;17.47;60.57;100651.16;5053757;28;20331;-56
2022/09/17 03:31:32;;;;;;;10.40;2.67;;;14.60;82.00;;;17.43;60.74;100642.78;5053211;28;20240;-54
2022/09/17 03:34:00;;;;;;;9.27;2.63;;;14.50;82.00;;;17.40;60.56;100647.75;5035955;28;20194;-56
2022/09/17 03:36:27;;;;;;;8.80;2.40;;;14.50;81.90;;;17.36;60.58;100654.53;5033647;28;20216;-54
2022/09/17 03:38:57;;;;;;;7.20;2.03;;;14.50;82.00;;;17.31;60.70;100654.38;5033405;28;20248;-56
2022/09/17 03:41:25;;;;;;;10.67;2.90;;;14.40;81.90;;;17.28;60.63;100647.66;5032607;28;20191;-55
2022/09/17 03:43:52;;;;;;;9.43;2.67;;;14.40;82.00;;;17.27;60.59;100653.22;5033383;28;20210;-54
2022/09/17 03:46:20;;;;;;;8.90;2.60;;;14.40;82.10;;;17.26;60.72;100648.91;5033218;28;20186;-56
2022/09/17 03:48:48;;;;;;;5.83;2.77;;;14.40;82.00;;;17.25;60.50;100648.13;5033283;28;20264;-56
2022/09/17 03:51:15;;;;;;;7.40;2.27;;;14.40;82.10;;;17.24;60.56;100657.13;5051903;28;20682;-54
2022/09/17 03:53:42;;;;;;;10.40;2.70;;;14.30;82.00;;;17.23;60.29;100655.50;5053318;28;20256;-55
2022/09/17 03:56:11;;;;;;;8.83;2.83;;;14.30;81.90;;;17.22;60.11;100658.38;5053265;28;20244;-54
2022/09/17 03:58:38;;;;;;;7.27;2.27;;;14.30;81.20;;;17.19;60.03;100658.78;5052991;28;20198;-54
2022/09/17 04:01:06;;;;;;;9.30;3.03;;;14.30;81.40;;;17.18;59.86;100663.31;5052594;28;20194;-53
2022/09/17 04:03:33;;;;;;;9.60;2.10;;;14.30;81.30;;;17.15;60.09;100661.09;5053058;28;20213;-53
2022/09/17 04:06:00;;;;;;;9.67;2.70;;;14.20;80.90;;;17.13;59.98;100660.50;5050587;28;20190;-54
2022/09/17 04:08:28;;;;;;;10.73;3.13;;;14.20;80.80;;;17.11;59.94;100656.44;5032759;28;20213;-57
2022/09/17 04:10:55;;;;;;;7.23;2.37;;;14.20;81.00;;;17.07;59.93;100666.69;5032519;28;20195;-55
2022/09/17 04:13:23;;;;;;;8.73;2.87;;;14.20;81.00;;;17.06;59.73;100672.22;5032827;28;20239;-55
2022/09/17 04:15:51;;;;;;;8.23;2.60;;;14.20;80.70;;;17.02;59.48;100666.53;5032899;28;20202;-54
2022/09/17 04:18:18;;;;;;;7.13;2.77;;;14.10;80.30;;;17.00;59.15;100665.94;5032891;28;20187;-55
2022/09/17 04:20:46;;;;;;;11.93;2.70;;;14.10;80.10;;;16.98;59.15;100669.84;5032557;28;20252;-53
2022/09/17 04:23:15;;;;;;;6.50;2.20;;;14.10;80.20;;;16.94;59.04;100664.16;5033384;28;20214;-53
2022/09/17 04:25:43;;;;;;;7.80;2.40;;;14.10;80.00;;;16.93;59.26;100675.81;5032533;28;20201;-56
2022/09/17 04:28:11;;;;;;;12.07;4.50;;;14.10;80.30;;;16.91;58.92;100677.88;5032594;28;20218;-55
2022/09/17 04:30:41;;;;;;;5.83;2.13;;;14.00;79.10;;;16.93;58.97;100673.16;5032550;28;20644;-54
2022/09/17 04:33:09;;;;;;;5.80;2.33;;;14.00;79.40;;;16.96;59.11;100672.72;5032511;28;20210;-54
2022/09/17 04:35:36;;;;;;;10.07;2.43;;;14.10;79.60;;;16.99;58.73;100680.28;5033030;28;20756;-53
2022/09/17 04:38:03;;;;;;;6.73;2.40;;;14.10;79.60;;;17.01;58.85;100686.19;5032423;28;20182;-54
2022/09/17 04:40:30;;;;;;;12.13;3.07;;;14.10;79.60;;;17.02;58.58;100695.78;5040018;28;20194;-53
2022/09/17 04:43:01;;;;;;;7.63;2.53;;;14.10;79.30;;;17.04;58.51;100699.06;5052434;28;20205;-54
2022/09/17 04:45:32;;;;;;;6.43;2.67;;;14.10;79.10;;;17.06;58.42;100696.16;5052402;28;20285;-53
2022/09/17 04:48:01;;;;;;;9.07;2.20;;;14.10;79.10;;;17.09;58.59;100698.41;5052359;28;20204;-55
2022/09/17 04:50:29;;;;;;;7.87;2.27;;;14.20;79.30;;;17.11;58.35;100710.44;5051780;28;20663;-54
2022/09/17 04:52:57;;;;;;;7.47;2.40;;;14.10;78.90;;;17.13;58.11;100708.38;5050886;28;20221;-56
2022/09/17 04:55:25;;;;;;;12.00;3.13;;;14.20;78.90;;;17.13;58.31;100708.38;5052137;28;20186;-56
2022/09/17 04:57:53;;;;;;;9.63;2.43;;;14.20;79.00;;;17.13;58.38;100705.72;5040152;28;20241;-57
2022/09/17 05:00:22;;;;;;;7.03;2.53;;;14.20;79.30;;;17.13;58.06;100716.38;5032428;28;20655;-57
2022/09/17 05:02:52;;;;;;;7.77;2.33;;;14.20;79.20;;;17.11;58.05;100710.44;5032135;28;20756;-55
2022/09/17 05:05:23;;;;;;;9.80;2.57;;;14.20;79.70;;;17.09;58.42;100707.16;5032160;28;20229;-55
2022/09/17 05:07:50;;;;;;;5.97;2.07;;;14.20;79.10;;;17.10;58.28;100713.31;5032040;28;20198;-57
2022/09/17 05:10:19;;;;;;;14.13;2.37;;;14.20;79.00;;;17.10;58.16;100714.13;5032404;28;20225;-53
2022/09/17 05:12:48;;;;;;;7.53;2.50;;;14.20;79.10;;;17.12;58.11;100720.03;5032020;28;20630;-57
2022/09/17 05:15:16;;;;;;;7.60;2.37;;;14.20;79.30;;;17.13;58.17;100727.00;5032994;28;20238;-55
2022/09/17 05:17:44;;;;;;;6.90;2.50;;;14.20;79.40;;;17.17;58.31;100722.88;5031846;28;20244;-55
2022/09/17 05:20:12;;;;;;;11.67;3.07;;;14.20;79.80;;;17.22;58.46;100728.34;5031801;28;20205;-56
2022/09/17 05:22:44;;;;;;;10.70;2.93;;;14.20;79.70;;;17.24;58.24;100726.28;5031684;28;20248;-54
2022/09/17 05:25:13;;;;;;;11.43;2.90;;;14.20;79.80;;;17.26;58.16;100720.72;5031883;28;21011;-53
2022/09/17 05:27:41;;;;;;;8.83;2.80;;;14.30;79.60;;;17.28;58.33;100711.50;5031663;28;20210;-57
2022/09/17 05:30:10;;;;;;;8.70;2.57;;;14.30;79.70;;;17.30;57.89;100725.44;5031817;28;20197;-54
2022/09/17 05:32:39;;;;;;;13.43;3.30;;;14.30;79.20;;;17.30;58.16;100720.09;5049800;28;20218;-53
2022/09/17 05:35:08;;;;;;;10.23;2.87;;;14.30;79.10;;;17.32;58.00;100723.34;5050971;28;20202;-57
2022/09/17 05:37:36;;;;;;;8.57;3.17;;;14.30;78.80;;;17.34;58.11;100723.94;5051660;28;20197;-54
2022/09/17 05:40:08;;;;;;;13.73;3.60;;;14.30;78.90;;;17.36;57.78;100718.41;5051635;28;20674;-56
2022/09/17 05:42:35;;;;;;;13.23;2.80;;;14.40;78.50;;;17.34;57.76;100710.66;5050017;28;20240;-55
2022/09/17 05:45:04;;;;;;;9.67;2.93;;;14.40;78.00;;;17.33;57.35;100718.84;5051566;28;20205;-57
2022/09/17 05:47:31;;;;;;;8.43;2.60;;;14.40;77.80;;;17.26;56.98;100705.59;5046746;28;20264;-56
2022/09/17 05:49:59;;;;;;;12.80;3.10;;;14.40;77.70;;;17.20;57.31;100711.81;5031504;28;20198;-56
2022/09/17 05:52:27;;;;;;;12.43;3.20;;;14.30;77.40;;;17.12;57.02;100714.72;5031011;28;20214;-53
2022/09/17 05:54:55;;;;;;;7.73;2.90;;;14.30;77.30;;;17.03;56.79;100708.06;5031654;28;20252;-56
2022/09/17 05:57:24;;;;;;;9.83;2.40;;;14.20;76.70;;;16.96;56.89;100712.63;5031475;28;20229;-55
2022/09/17 05:59:51;;;;;;;9.27;2.77;;;14.20;76.90;;;16.89;56.93;100710.00;5031335;28;20266;-54
2022/09/17 06:02:18;;;;;;;11.23;2.57;;;14.10;76.90;;;16.86;56.97;100717.59;5031187;28;20272;-55
2022/09/17 06:04:46;;;;;;;12.83;2.70;;;14.10;76.90;;;16.79;56.70;100711.50;5041198;28;20285;-54
2022/09/17 06:07:13;;;;;;;7.40;2.73;;;14.00;76.70;;;16.71;57.04;100719.75;5050943;28;20814;-54
2022/09/17 06:09:40;;;;;;;9.53;2.90;;;13.90;76.60;;;16.62;56.75;100715.72;5051363;28;20602;-55
2022/09/17 06:12:08;;;;;;;10.53;2.60;;;13.90;76.60;;;16.54;56.58;100718.63;5050890;28;20213;-54
2022/09/17 06:14:36;;;;;;;7.90;2.33;;;13.80;76.30;;;16.50;56.90;100720.03;5051038;28;20209;-56
2022/09/17 06:17:04;;;;;;;9.87;2.03;;;13.80;76.40;;;16.47;56.86;100725.81;5051163;28;20249;-56
2022/09/17 06:19:31;;;;;;;7.67;3.20;;;13.70;76.30;;;16.43;56.83;100729.91;5051606;28;20647;-54
2022/09/17 06:21:58;;;;;;;9.53;2.50;;;13.70;76.40;;;16.42;57.17;100730.94;5047499;28;20213;-56
2022/09/17 06:24:26;;;;;;;5.23;2.17;;;13.70;76.70;;;16.44;57.19;100734.19;5051017;28;20194;-54
2022/09/17 06:26:53;;;;;;;5.57;2.00;;;13.70;76.60;;;16.44;57.11;100728.88;5051114;28;20205;-56
2022/09/17 06:29:21;;;;;;;9.60;2.70;;;13.60;76.80;;;16.47;57.40;100733.78;5051056;28;20218;-56
2022/09/17 06:31:50;;;;;;;7.67;2.60;;;13.70;77.10;;;16.48;57.00;100728.25;5050644;28;20216;-55
2022/09/17 06:34:18;;;;;;;10.30;2.20;;;13.70;76.90;;;16.51;56.89;100719.03;5050906;28;20193;-56
2022/09/17 06:36:47;;;;;;;10.13;2.40;;;13.70;77.20;;;16.52;56.80;100726.00;5050856;28;20190;-57
2022/09/17 06:39:14;;;;;;;6.80;2.70;;;13.70;76.30;;;16.54;56.70;100729.28;5049282;28;20234;-56
2022/09/17 06:41:42;;;;;;;10.63;2.40;;;13.70;76.20;;;16.58;56.55;100730.47;5050751;28;20190;-56
2022/09/17 06:44:09;;;;;;;9.53;2.83;;;13.70;76.00;;;16.61;56.29;100732.69;5051040;28;20240;-56
2022/09/17 06:46:36;;;;;;;9.70;2.43;;;13.70;76.00;;;16.60;55.50;100737.19;5052617;28;20225;-55
2022/09/17 06:49:05;;;;;;;7.53;2.07;;;13.80;75.30;;;16.63;55.79;100733.31;5054315;28;20209;-53
2022/09/17 06:51:33;;;;;;;11.30;2.63;;;13.80;75.30;;;16.68;55.89;100730.81;5054026;28;20275;-56
2022/09/17 06:54:00;;;;;;;7.13;2.20;;;13.80;75.40;;;16.75;56.02;100720.97;5054859;28;20190;-55
2022/09/17 06:56:28;;;;;;;13.33;2.33;;;13.90;75.50;;;16.86;56.01;100729.03;5052877;28;20194;-56
2022/09/17 06:58:55;;;;;;;8.17;2.77;;;13.90;75.10;;;17.12;56.28;100728.03;5053691;28;20220;-56
2022/09/17 07:01:22;;;;;;;11.20;2.83;;;14.00;76.00;;;17.45;55.69;100731.19;5054255;28;20304;-53
2022/09/17 07:03:49;;;;;;;11.93;2.80;;;14.20;76.00;;;17.85;55.17;100728.19;5053387;28;20253;-54
2022/09/17 07:06:18;;;;;;;10.47;2.90;;;14.50;75.70;;;18.27;54.17;100728.06;5053998;28;20232;-55
2022/09/17 07:08:46;;;;;;;6.87;2.30;;;14.80;74.10;;;18.74;52.52;100729.06;5053874;28;20237;-54
2022/09/17 07:11:15;;;;;;;7.57;2.40;;;15.20;72.70;;;19.26;51.87;100726.59;5053635;28;20217;-56
2022/09/17 07:13:42;;;;;;;10.57;2.93;;;15.60;72.20;;;19.75;50.33;100726.16;5052280;28;20284;-57
2022/09/17 07:16:10;;;;;;;11.07;3.10;;;15.90;70.80;;;20.33;49.78;100738.56;5054576;28;20273;-53
2022/09/17 07:18:39;;;;;;;8.20;3.03;;;16.40;69.30;;;20.79;47.85;100738.34;5054064;28;20658;-54
2022/09/17 07:21:06;;;;;;;8.87;2.07;;;16.80;68.10;;;21.31;46.67;100739.78;5053861;28;20742;-53
2022/09/17 07:23:36;;;;;;;5.90;1.93;;;17.20;66.40;;;21.83;46.45;100729.53;5053886;28;20259;-56
2022/09/17 07:26:07;;;;;;;6.47;2.40;;;17.60;65.00;;;22.13;44.94;100729.13;5053467;28;20577;-54
2022/09/17 07:28:37;;;;;;;9.70;2.50;;;18.00;63.40;;;22.10;44.31;100737.69;5051987;28;20725;-57
2022/09/17 07:31:07;;;;;;;8.43;2.30;;;18.30;62.10;;;21.90;43.86;100745.44;5053157;28;20232;-54
2022/09/17 07:33:41;;;;;;;8.27;2.90;;;18.30;60.50;;;21.75;42.80;100742.56;5053231;28;20206;-57
2022/09/17 07:36:13;;;;;;;10.50;2.60;;;18.30;58.20;;;21.53;43.19;100740.66;5053245;28;20193;-54
2022/09/17 07:38:42;;;;;;;7.23;2.33;;;18.20;58.80;;;21.85;43.26;100737.34;5053363;28;20189;-54
2022/09/17 07:41:12;;;;;;;9.43;2.57;;;18.20;59.00;;;22.49;41.74;100739.19;5053111;28;20275;-55
2022/09/17 07:43:41;;;;;;;9.70;2.67;;;18.40;58.50;;;23.17;41.14;100730.44;5053861;28;20209;-55
2022/09/17 07:46:16;;;;;;;6.07;2.10;;;18.70;58.80;;;23.93;40.66;100738.97;5052325;28;20214;-55
2022/09/17 07:48:45;;;;;;;5.97;2.97;;;19.10;59.60;;;24.71;38.70;100736.00;5056109;28;20308;-54
2022/09/17 07:51:17;;;;;;;6.43;2.60;;;19.60;57.60;;;25.29;37.32;100731.97;5054830;28;20198;-56
2022/09/17 07:53:46;;;;;;;7.97;2.30;;;20.10;55.20;;;25.82;37.12;100730.53;5053584;28;20213;-54
2022/09/17 07:56:14;;;;;;;7.33;2.47;;;20.60;55.20;;;26.27;34.14;100721.44;5053640;28;20233;-58
2022/09/17 07:58:41;;;;;;;7.30;2.50;;;21.00;50.80;;;26.53;34.57;100720.22;5052542;28;20193;-53
2022/09/17 08:01:11;;;;;;;8.97;2.43;;;21.40;51.20;;;26.75;33.77;100715.22;5052500;28;20197;-56
2022/09/17 08:03:39;;;;;;;5.47;2.67;;;21.70;50.80;;;26.96;32.19;100720.47;5051283;28;20244;-56
2022/09/17 08:06:09;;;;;;;7.03;2.23;;;21.80;47.90;;;27.26;32.49;100718.31;5052803;28;20248;-56
2022/09/17 08:08:38;;;;;;;7.77;2.43;;;22.00;48.30;;;27.63;32.43;100716.84;5053050;28;20205;-56
2022/09/17 08:11:10;;;;;;;9.13;2.60;;;22.30;48.80;;;28.06;31.10;100727.44;5052582;28;20243;-56
2022/09/17 08:13:39;;;;;;;6.83;2.30;;;22.60;46.60;;;28.33;29.33;100718.69;5052802;28;20246;-55
2022/09/17 08:16:09;;;;;;;6.00;2.90;;;22.80;44.30;;;28.62;29.96;100724.00;5052740;28;20220;-54
2022/09/17 08:18:36;;;;;;;6.30;2.50;;;23.20;45.50;;;28.91;28.41;100716.47;5052385;28;20194;-56
2022/09/17 08:21:06;;;;;;;6.27;2.87;;;23.50;43.10;;;29.05;28.98;100720.00;5050476;28;20198;-59
2022/09/17 08:23:37;;;;;;;6.33;2.50;;;23.70;42.70;;;29.45;28.80;100722.03;5052574;28;20358;-56
2022/09/17 08:26:10;;;;;;;6.03;2.40;;;24.00;43.40;;;29.95;28.42;100719.47;5052309;28;20190;-54
2022/09/17 08:28:38;;;;;;;8.53;2.63;;;24.40;43.00;;;30.33;28.23;100712.69;5052466;28;20225;-56
2022/09/17 08:31:07;;;;;;;10.00;3.30;;;24.70;42.20;;;30.20;27.04;100721.63;5051995;28;20198;-56
2022/09/17 08:33:38;;;;;;;8.47;2.57;;;24.70;39.70;;;29.98;26.45;100719.63;5051879;28;20275;-55
2022/09/17 08:36:09;;;;;;;6.67;2.20;;;24.60;40.00;;;29.51;27.95;100714.59;5051908;28;20190;-58
2022/09/17 08:38:37;;;;;;;5.93;2.20;;;24.70;40.30;;;29.16;27.47;100718.75;5050654;28;20182;-57
2022/09/17 08:41:22;;;;;;;6.27;2.13;;;24.60;38.70;;;29.11;25.79;100707.19;5051875;28;20272;-54
2022/09/17 08:44:12;;;;;;;3.17;1.70;;;24.20;36.40;;;28.98;25.64;100716.88;5051941;28;20210;-56
2022/09/17 08:46:46;;;;;;;3.37;2.00;;;24.00;36.10;;;28.21;26.52;100712.91;5052247;28;20535;-54
2022/09/17 08:49:29;;;;;;;3.70;2.20;;;23.80;36.60;;;27.28;27.00;100720.72;5052538;28;20240;-55
2022/09/17 08:52:43;;;;;;;5.13;2.50;;;23.40;36.50;;;26.34;28.38;100731.97;5051704;28;20214;-54
2022/09/17 08:55:28;;;;;;;2.87;1.77;;;23.00;37.50;;;25.67;28.92;100727.09;5050287;28;20194;-55
2022/09/17 08:58:19;;;;;;;4.47;1.70;;;22.40;38.30;;;25.05;30.33;100735.50;5051724;28;20232;-56
2022/09/17 09:01:03;;;;;;;5.37;2.00;;;21.90;39.50;;;24.53;31.51;100722.25;5050271;28;20202;-57
2022/09/17 09:03:49;;;;;;;3.67;1.90;;;21.40;41.30;;;24.02;32.30;100726.63;5029915;28;20210;-56
2022/09/17 09:06:22;;;;;;;3.87;2.03;;;20.90;42.70;;;23.72;33.14;100724.63;5030111;28;20209;-56
2022/09/17 09:08:58;;;;;;;3.83;1.80;;;20.60;44.10;;;23.53;33.97;100723.47;5029445;28;20217;-56
2022/09/17 09:11:29;;;;;;;6.10;2.13;;;20.30;45.20;;;23.25;34.33;100726.47;5029366;28;20185;-55
2022/09/17 09:14:12;;;;;;;4.20;2.07;;;20.10;45.80;;;22.94;35.09;100729.97;5031276;28;20220;-56
2022/09/17 09:16:44;;;;;;;3.47;1.80;;;19.80;46.40;;;22.62;35.87;100736.13;5030815;28;20210;-53
2022/09/17 09:19:21;;;;;;;7.10;2.40;;;19.60;47.70;;;22.27;37.18;100765.25;5031766;28;20554;-55
2022/09/17 09:22:03;;;;;;;6.50;2.77;;;19.30;49.40;;;21.88;38.81;100777.06;5031254;28;20884;-55
2022/09/17 09:24:41;;;;;;;5.83;1.83;;;19.00;51.60;;;21.48;39.21;100769.22;5030648;28;20651;-55
2022/09/17 09:27:17;;;;;;;5.37;1.57;;;18.70;52.00;;;21.07;40.29;100767.78;5031685;28;20190;-56
2022/09/17 09:30:00;;;;;;;7.33;2.47;;;18.30;52.90;;;20.70;41.50;100782.59;5032523;28;20225;-55
2022/09/17 09:32:50;;;;;;;5.43;2.67;;;18.10;54.50;;;20.38;42.41;100773.41;5031276;28;20209;-56
2022/09/17 09:35:21;;;;;;;9.03;2.33;;;17.70;56.00;;;20.16;43.13;100787.41;5030489;28;20557;-57
2022/09/17 09:37:58;;;;;;;6.10;2.43;;;17.40;57.20;;;19.91;44.02;100789.53;5031212;28;20575;-56
2022/09/17 09:40:35;;;;;;;10.60;5.00;;;17.20;58.30;;;19.70;45.24;100787.47;5031034;28;20197;-57
2022/09/17 09:43:17;;;;;;;7.50;2.20;;;17.00;59.80;;;19.49;45.71;100806.75;5031819;28;20210;-57
2022/09/17 09:46:18;;;;;;;6.80;2.93;;;16.80;61.00;;;19.31;46.97;100806.78;5031407;28;20198;-54
2022/09/17 09:49:03;;;;;;;6.03;2.60;;;16.60;62.20;;;19.21;47.10;100799.34;5031442;28;20234;-56
2022/09/17 09:51:43;;;;;;;6.83;3.47;;;16.40;63.30;;;19.12;48.15;100789.22;5031570;28;20198;-55
2022/09/17 09:54:30;;;;;;;9.67;2.90;;;16.30;64.80;;;19.04;48.07;100773.56;5031506;28;20248;-54
2022/09/17 09:57:06;;;;;;;5.87;2.70;;;16.20;65.10;;;19.04;48.48;100770.91;5031561;28;20193;-54
2022/09/17 09:59:35;;;;;;;3.93;2.40;;;16.10;65.50;;;19.08;48.60;100774.72;5032005;28;20171;-54
2022/09/17 10:02:03;;;;;;;4.27;1.73;;;16.10;65.60;;;19.06;48.42;100780.31;5031421;28;20225;-54
2022/09/17 10:04:31;;;;;;;5.27;2.10;;;16.00;65.30;;;19.02;48.30;100786.34;5046852;28;20200;-56
2022/09/17 10:07:05;;;;;;;4.50;2.40;;;16.00;65.50;;;18.97;48.82;100788.88;5051166;28;20198;-55
2022/09/17 10:09:35;;;;;;;6.03;2.77;;;15.90;66.30;;;18.99;48.81;100789.44;5051264;28;20216;-58
2022/09/17 10:12:15;;;;;;;8.97;2.50;;;16.00;66.70;;;18.93;48.63;100786.66;5050662;28;20698;-54
2022/09/17 10:14:44;;;;;;;4.87;2.10;;;15.80;65.90;;;18.92;48.63;100785.00;5050835;28;20190;-56
2022/09/17 10:17:19;;;;;;;6.63;2.57;;;15.80;66.70;;;18.89;48.64;100780.16;5051025;28;20682;-55
2022/09/17 10:20:13;;;;;;;7.23;2.80;;;15.80;66.80;;;18.78;48.75;100780.91;5047555;28;20592;-56
2022/09/17 10:22:47;;;;;;;4.63;1.83;;;15.80;67.10;;;18.77;49.22;100787.28;5034654;28;20221;-56
2022/09/17 10:25:28;;;;;;;5.83;2.10;;;15.70;67.40;;;18.71;49.42;100782.84;5034977;28;20644;-57
2022/09/17 10:27:58;;;;;;;6.57;2.10;;;15.70;67.40;;;18.68;49.21;100777.19;5034547;28;20194;-56
2022/09/17 10:30:26;;;;;;;7.07;2.60;;;15.60;67.00;;;18.64;49.81;100776.78;5034024;28;20203;-55
2022/09/17 10:33:22;;;;;;;3.10;1.67;;;15.60;67.30;;;18.55;49.62;100756.81;5034587;28;20242;-56